Time;durP1;ratioP1;P1;durP2;ratioP2;P2;SDS_P1;SDS_P2;PMS_P1;PMS_P2;Temp;Humidity;BMP_temperature;BMP_pressure;BME280_temperature;BME280_humidity;BME280_pressure;Samples;Min_cycle;Max_cycle;Signal;HPM_P1;HPM_P2
2021/06/01 00:01:35;;;;;;;4.55;3.25;;;9.60;78.50;;;;;;4966545;28;20210;-87
2021/06/01 00:04:02;;;;;;;4.60;3.55;;;9.40;79.50;;;;;;4959100;28;20256;-88
2021/06/01 00:06:29;;;;;;;3.70;3.35;;;9.30;80.20;;;;;;4966221;28;20194;-89
2021/06/01 00:08:56;;;;;;;3.60;3.30;;;9.20;81.10;;;;;;4967992;28;20225;-88
2021/06/01 00:11:23;;;;;;;5.55;3.53;;;9.20;81.70;;;;;;4967626;28;20201;-89
2021/06/01 00:13:50;;;;;;;5.80;3.83;;;9.10;81.80;;;;;;5004712;28;20237;-89
2021/06/01 00:16:18;;;;;;;4.65;3.70;;;9.00;82.50;;;;;;5069131;28;20212;-88
2021/06/01 00:18:45;;;;;;;4.20;3.67;;;9.00;83.00;;;;;;5034399;28;20237;-88
2021/06/01 00:21:12;;;;;;;4.13;3.60;;;9.00;83.20;;;;;;5013453;28;20564;-89
2021/06/01 00:23:39;;;;;;;3.55;3.25;;;9.10;85.00;;;;;;5001283;28;20255;-88
2021/06/01 00:26:07;;;;;;;4.13;3.57;;;9.20;85.20;;;;;;5030491;28;20279;-89
2021/06/01 00:28:34;;;;;;;4.07;3.60;;;9.20;85.50;;;;;;4992395;28;20237;-89
2021/06/01 00:31:00;;;;;;;4.45;3.90;;;9.20;84.00;;;;;;5068091;28;20209;-89
2021/06/01 00:33:28;;;;;;;6.20;3.87;;;9.30;84.10;;;;;;5046988;28;20235;-88
2021/06/01 00:35:54;;;;;;;7.20;3.80;;;9.20;84.80;;;;;;4966584;28;20208;-88
2021/06/01 00:38:21;;;;;;;4.93;3.70;;;9.20;84.70;;;;;;4967988;28;20233;-88
2021/06/01 00:40:48;;;;;;;4.37;3.70;;;9.10;84.60;;;;;;4954300;28;20251;-88
2021/06/01 00:43:14;;;;;;;4.43;4.03;;;9.00;84.40;;;;;;4965476;28;20256;-88
2021/06/01 00:45:41;;;;;;;4.15;3.75;;;9.00;85.10;;;;;;4965065;28;20214;-89
2021/06/01 00:48:08;;;;;;;5.37;3.60;;;9.00;86.30;;;;;;4965475;28;20217;-88
2021/06/01 00:50:36;;;;;;;4.60;3.80;;;9.10;86.20;;;;;;4957036;28;20209;-89
2021/06/01 00:53:03;;;;;;;4.57;4.17;;;9.00;85.00;;;;;;4997694;28;20254;-88
2021/06/01 00:55:29;;;;;;;4.30;3.90;;;8.90;85.60;;;;;;4987760;28;20213;-88
2021/06/01 00:57:56;;;;;;;6.10;3.90;;;8.90;86.40;;;;;;4967226;28;20233;-88
2021/06/01 01:00:48;;;;;;;4.40;3.87;;;8.70;86.60;;;;;;4965144;28;20232;-88
2021/06/01 01:03:15;;;;;;;4.80;4.13;;;8.70;87.30;;;;;;4981134;28;20553;-88
2021/06/01 01:05:46;;;;;;;5.37;4.00;;;8.80;86.70;;;;;;4985987;28;20236;-88
2021/06/01 01:08:32;;;;;;;4.20;3.80;;;8.70;85.80;;;;;;4973046;28;20217;-87
2021/06/01 01:11:03;;;;;;;5.17;4.00;;;8.60;86.50;;;;;;4985526;28;20200;-88
2021/06/01 01:13:37;;;;;;;4.17;3.77;;;8.50;87.00;;;;;;4985307;28;20242;-87
2021/06/01 01:16:06;;;;;;;4.57;3.70;;;8.40;87.40;;;;;;4986159;28;20200;-88
2021/06/01 01:18:35;;;;;;;5.53;4.03;;;8.50;89.90;;;;;;5043309;28;20226;-88
2021/06/01 01:21:10;;;;;;;5.00;4.50;;;8.60;89.50;;;;;;5059448;28;20209;-89
2021/06/01 01:23:40;;;;;;;4.43;4.00;;;8.70;90.10;;;;;;5040994;28;20236;-88
2021/06/01 01:26:14;;;;;;;4.63;3.90;;;8.70;89.20;;;;;;4963548;28;20198;-89
2021/06/01 01:28:50;;;;;;;4.57;3.60;;;8.80;89.00;;;;;;4974024;28;20298;-88
2021/06/01 01:31:25;;;;;;;5.10;3.50;;;8.90;88.80;;;;;;4947918;29;20204;-88
2021/06/01 01:33:55;;;;;;;3.87;3.47;;;9.00;87.70;;;;;;4972331;28;20793;-88
2021/06/01 01:36:22;;;;;;;3.87;3.53;;;9.00;87.00;;;;;;4986279;28;20242;-90
2021/06/01 01:38:50;;;;;;;5.43;3.57;;;8.80;85.30;;;;;;5020216;28;20251;-87
2021/06/01 01:41:17;;;;;;;3.70;3.40;;;8.70;86.00;;;;;;5060367;28;20185;-89
2021/06/01 01:44:13;;;;;;;4.33;3.77;;;8.50;87.40;;;;;;4986057;28;20311;-87
2021/06/01 01:46:57;;;;;;;4.57;3.63;;;8.30;88.10;;;;;;4986498;28;20200;-88
2021/06/01 02:05:58;;;;;;;4.57;3.83;;;8.30;90.30;;;;;;5144920;27;20556;-89
2021/06/01 02:08:25;;;;;;;6.27;3.90;;;7.90;90.20;;;;;;5141140;27;20227;-89
2021/06/01 02:11:22;;;;;;;4.53;4.13;;;8.00;90.40;;;;;;5125787;28;20255;-89
2021/06/01 02:13:58;;;;;;;5.90;4.30;;;8.00;90.30;;;;;;5125213;28;20245;-89
2021/06/01 02:17:11;;;;;;;5.27;4.10;;;8.10;90.50;;;;;;5125414;28;20537;-88
2021/06/01 02:19:37;;;;;;;4.57;4.03;;;8.10;90.30;;;;;;5125274;28;20242;-87
2021/06/01 02:22:28;;;;;;;5.37;3.90;;;8.10;90.30;;;;;;5127399;28;20276;-87
2021/06/01 02:24:59;;;;;;;5.77;3.90;;;8.20;90.30;;;;;;5125394;28;20223;-87
2021/06/01 02:27:38;;;;;;;4.07;3.73;;;8.20;90.30;;;;;;5126966;28;20188;-92
2021/06/01 02:30:06;;;;;;;4.47;3.97;;;8.30;90.30;;;;;;5129991;27;20565;-87
2021/06/01 02:32:36;;;;;;;4.50;4.10;;;8.40;90.30;;;;;;5131970;28;20200;-88
2021/06/01 02:35:08;;;;;;;4.40;4.00;;;8.40;89.70;;;;;;5125673;28;20228;-87
2021/06/01 02:37:38;;;;;;;4.03;3.50;;;8.10;89.10;;;;;;5126448;28;20196;-87
2021/06/01 02:40:06;;;;;;;5.77;3.87;;;7.90;90.20;;;;;;5125376;28;20227;-87
2021/06/01 02:42:32;;;;;;;4.37;3.97;;;7.80;90.20;;;;;;5125990;28;20248;-88
2021/06/01 02:45:00;;;;;;;4.87;3.80;;;7.70;91.00;;;;;;5122788;28;20302;-89
2021/06/01 02:47:26;;;;;;;4.53;4.03;;;7.80;90.80;;;;;;5122750;28;20203;-88
2021/06/01 02:49:54;;;;;;;6.90;4.27;;;7.80;90.50;;;;;;5126048;27;20227;-87
2021/06/01 02:52:21;;;;;;;5.07;4.40;;;7.70;90.20;;;;;;5113963;28;20203;-87
2021/06/01 02:54:50;;;;;;;4.63;3.93;;;7.60;90.80;;;;;;5123191;28;20219;-87
2021/06/01 02:57:19;;;;;;;4.77;4.30;;;7.50;90.60;;;;;;5124874;28;20240;-88
2021/06/01 02:59:47;;;;;;;5.93;4.40;;;7.50;90.70;;;;;;5123140;28;20277;-87
2021/06/01 03:02:14;;;;;;;4.83;4.40;;;7.50;91.20;;;;;;5125079;28;20234;-89
2021/06/01 03:04:50;;;;;;;6.40;4.50;;;7.40;91.20;;;;;;5118925;27;20240;-87
2021/06/01 03:07:17;;;;;;;4.43;3.80;;;7.50;91.80;;;;;;5104179;28;20223;-88
2021/06/01 03:09:43;;;;;;;4.87;3.90;;;7.50;91.40;;;;;;5101674;28;20239;-87
2021/06/01 03:12:21;;;;;;;4.60;4.13;;;7.60;91.40;;;;;;5100827;28;20279;-88
2021/06/01 03:14:48;;;;;;;5.47;4.13;;;7.60;90.70;;;;;;5100914;28;20228;-88
2021/06/01 03:17:15;;;;;;;4.47;4.07;;;7.60;91.00;;;;;;5113417;28;20196;-87
2021/06/01 03:19:41;;;;;;;4.80;4.20;;;7.60;91.10;;;;;;5115790;28;20504;-88
2021/06/01 03:22:08;;;;;;;4.30;3.90;;;7.70;90.90;;;;;;5100171;28;20234;-87
2021/06/01 03:24:35;;;;;;;7.50;4.33;;;7.60;91.00;;;;;;5107599;28;20255;-88
2021/06/01 03:27:02;;;;;;;7.43;4.30;;;7.50;90.80;;;;;;5119311;28;20201;-87
2021/06/01 03:29:30;;;;;;;6.87;4.60;;;7.40;91.00;;;;;;5109001;28;20227;-89
2021/06/01 03:31:56;;;;;;;5.23;4.17;;;7.30;90.90;;;;;;5114398;28;20212;-88
2021/06/01 03:34:24;;;;;;;5.10;4.47;;;7.20;91.20;;;;;;5095834;28;20240;-88
2021/06/01 03:36:50;;;;;;;4.90;4.40;;;7.20;91.60;;;;;;5112636;28;20200;-87
2021/06/01 03:39:17;;;;;;;4.80;4.30;;;7.20;91.70;;;;;;5108643;28;20591;-87
2021/06/01 03:41:44;;;;;;;5.07;4.57;;;7.30;92.60;;;;;;5110780;28;20197;-89
2021/06/01 03:44:10;;;;;;;9.20;4.30;;;7.30;91.90;;;;;;5117571;27;20435;-88
2021/06/01 03:46:38;;;;;;;5.60;4.27;;;7.40;91.90;;;;;;5119577;28;20264;-89
2021/06/01 03:49:05;;;;;;;4.90;4.17;;;7.40;91.90;;;;;;5110074;28;20224;-87
2021/06/01 03:51:31;;;;;;;6.73;4.40;;;7.60;92.00;;;;;;5096229;28;20211;-89
2021/06/01 03:53:58;;;;;;;5.50;4.50;;;7.70;92.30;;;;;;5125348;27;20232;-89
2021/06/01 03:56:24;;;;;;;4.97;4.47;;;7.80;91.50;;;;;;5116645;28;20663;-87
2021/06/01 03:58:51;;;;;;;7.60;4.23;;;7.80;91.40;;;;;;5108964;28;20228;-87
2021/06/01 04:01:17;;;;;;;6.73;4.60;;;7.90;91.10;;;;;;5107907;28;20206;-87
2021/06/01 04:03:45;;;;;;;5.17;4.60;;;7.90;91.30;;;;;;5102652;28;20263;-88
2021/06/01 04:06:12;;;;;;;4.93;4.13;;;8.00;91.20;;;;;;5114939;28;20200;-87
2021/06/01 04:08:39;;;;;;;6.10;4.13;;;8.00;91.10;;;;;;5108790;28;20224;-87
2021/06/01 04:11:06;;;;;;;4.77;4.27;;;8.10;91.30;;;;;;5109774;28;20267;-87
2021/06/01 04:13:32;;;;;;;5.80;4.00;;;8.20;91.00;;;;;;5116715;28;20227;-89
2021/06/01 04:15:59;;;;;;;6.00;4.40;;;8.30;90.80;;;;;;5108229;28;20201;-88
2021/06/01 04:18:25;;;;;;;5.93;4.20;;;8.30;90.30;;;;;;5106950;28;20303;-87
2021/06/01 04:20:53;;;;;;;4.67;4.20;;;8.40;90.30;;;;;;5111218;28;20255;-87
2021/06/01 04:23:20;;;;;;;5.40;4.03;;;8.30;90.50;;;;;;5110058;28;20233;-87
2021/06/01 04:25:46;;;;;;;7.80;4.47;;;8.20;90.10;;;;;;5111564;28;20210;-87
2021/06/01 04:28:35;;;;;;;4.87;4.47;;;8.10;90.30;;;;;;5110823;28;20195;-88
2021/06/01 04:34:25;;;;;;;4.40;4.00;;;8.20;90.30;;;;;;5130862;28;20646;-86
2021/06/01 04:36:53;;;;;;;5.87;4.40;;;8.30;90.30;;;;;;5131667;28;20200;-87
2021/06/01 04:39:19;;;;;;;4.90;4.10;;;8.50;90.40;;;;;;5131102;28;20227;-86
2021/06/01 04:41:46;;;;;;;4.83;4.33;;;8.70;90.40;;;;;;5131138;28;20221;-87
2021/06/01 04:44:12;;;;;;;5.30;4.23;;;8.60;89.20;;;;;;5127706;28;20261;-87
2021/06/01 04:46:38;;;;;;;7.17;4.33;;;8.70;88.70;;;;;;5130372;28;20195;-86
2021/06/01 04:49:05;;;;;;;5.40;4.30;;;8.70;88.10;;;;;;5130706;28;20230;-86
2021/06/01 04:51:47;;;;;;;4.90;4.37;;;8.80;89.00;;;;;;5114931;28;20206;-87
2021/06/01 04:54:15;;;;;;;6.73;4.67;;;8.90;89.10;;;;;;5129645;28;20323;-87
2021/06/01 04:56:41;;;;;;;5.23;4.43;;;9.00;87.50;;;;;;5135784;27;20252;-87
2021/06/01 04:59:07;;;;;;;5.40;4.80;;;9.20;87.30;;;;;;5136706;27;20243;-87
2021/06/01 05:01:34;;;;;;;6.57;4.50;;;9.20;87.00;;;;;;5129218;28;20240;-89
2021/06/01 05:04:00;;;;;;;5.03;4.30;;;9.30;85.90;;;;;;5109978;28;20215;-88
2021/06/01 05:06:26;;;;;;;6.18;4.32;;;9.30;85.10;;;;;;5128765;28;20204;-87
2021/06/01 05:08:53;;;;;;;7.57;4.68;;;9.40;85.50;;;;;;5125268;28;20220;-90
2021/06/01 05:11:21;;;;;;;6.75;5.30;;;9.50;86.20;;;;;;5129821;28;20272;-90
2021/06/01 05:13:48;;;;;;;7.18;4.93;;;9.70;85.50;;;;;;5119036;28;20249;-90
2021/06/01 05:16:14;;;;;;;6.70;4.32;;;9.80;84.80;;;;;;5122756;28;20208;-91
2021/06/01 05:18:41;;;;;;;9.38;4.63;;;10.00;82.90;;;;;;5125266;28;20216;-89
2021/06/01 05:21:08;;;;;;;7.72;4.72;;;10.00;82.10;;;;;;5127028;28;20196;-90
2021/06/01 05:23:34;;;;;;;5.95;4.10;;;10.10;81.40;;;;;;5126748;28;20223;-91
2021/06/01 05:26:01;;;;;;;4.85;4.10;;;10.20;82.30;;;;;;5127162;28;20206;-89
2021/06/01 05:28:29;;;;;;;4.82;3.80;;;10.30;80.50;;;;;;5126003;28;20219;-89
2021/06/01 05:31:03;;;;;;;5.63;3.40;;;10.50;79.00;;;;;;5125404;28;20199;-92
2021/06/01 05:33:32;;;;;;;5.35;3.42;;;10.50;73.60;;;;;;5125931;28;20230;-89
2021/06/01 05:39:55;;;;;;;5.82;3.08;;;11.10;74.00;;;;;;5126534;28;20345;-89
2021/06/01 05:42:23;;;;;;;4.25;3.10;;;12.00;63.10;;;;;;5127895;28;20707;-89
2021/06/01 05:44:50;;;;;;;5.32;2.90;;;12.50;60.60;;;;;;5125514;28;20694;-89
2021/06/01 05:47:18;;;;;;;5.95;3.50;;;12.80;55.30;;;;;;5125901;28;20195;-87
2021/06/01 05:49:44;;;;;;;3.65;2.85;;;13.10;55.20;;;;;;5125834;28;20296;-89
2021/06/01 05:52:11;;;;;;;5.88;3.25;;;13.30;53.80;;;;;;5144920;28;20224;-89
2021/06/01 06:03:03;;;;;;;5.50;3.00;;;13.10;54.50;;;;;;5513239;22;20263;-89
2021/06/01 06:05:30;;;;;;;5.30;3.28;;;12.90;55.40;;;;;;5067967;28;20263;-89
2021/06/01 06:08:05;;;;;;;7.40;3.47;;;12.90;54.60;;;;;;5068641;28;20205;-91
2021/06/01 06:10:32;;;;;;;5.07;3.35;;;12.80;56.20;;;;;;5064161;28;20206;-88
2021/06/01 06:12:58;;;;;;;3.13;2.90;;;12.80;55.90;;;;;;5087080;28;20197;-89
2021/06/01 06:15:28;;;;;;;4.78;2.90;;;12.80;54.80;;;;;;5067238;28;20320;-88
2021/06/01 06:18:01;;;;;;;6.30;3.10;;;12.90;56.80;;;;;;5068489;28;20190;-89
2021/06/01 06:20:30;;;;;;;3.63;2.75;;;12.90;56.70;;;;;;5041077;28;20214;-88
2021/06/01 06:22:57;;;;;;;4.15;2.78;;;13.00;57.10;;;;;;5061231;28;20208;-89
2021/06/01 06:25:24;;;;;;;6.32;3.10;;;13.00;56.10;;;;;;5066873;28;20316;-89
2021/06/01 06:27:51;;;;;;;4.80;2.75;;;12.90;54.70;;;;;;5067979;28;20539;-89
2021/06/01 06:30:18;;;;;;;3.28;2.60;;;13.00;55.40;;;;;;5057411;28;20302;-88
2021/06/01 06:32:45;;;;;;;3.85;2.42;;;13.10;54.10;;;;;;5071090;28;20632;-89
2021/06/01 06:35:12;;;;;;;4.95;3.10;;;13.30;55.30;;;;;;5080875;28;20231;-90
2021/06/01 06:37:40;;;;;;;3.38;2.85;;;13.40;52.80;;;;;;5089321;28;20201;-90
2021/06/01 06:40:09;;;;;;;4.10;2.80;;;13.50;51.60;;;;;;5089842;28;20715;-88
2021/06/01 06:42:37;;;;;;;3.17;2.50;;;13.70;50.20;;;;;;5093872;28;20260;-89
2021/06/01 06:58:41;;;;;;;3.58;2.65;;;14.60;46.20;;;;;;5039788;28;20286;-87
2021/06/01 07:01:08;;;;;;;4.45;2.53;;;14.50;45.50;;;;;;5034336;28;20187;-87
2021/06/01 07:03:35;;;;;;;3.03;2.70;;;14.70;44.50;;;;;;5049942;28;20234;-88
2021/06/01 07:06:03;;;;;;;3.80;3.00;;;14.90;44.40;;;;;;5050423;28;20297;-88
2021/06/01 07:08:29;;;;;;;3.22;2.80;;;15.10;42.90;;;;;;5056805;28;20662;-89
2021/06/01 07:10:57;;;;;;;4.30;2.50;;;15.30;41.40;;;;;;5064325;28;20209;-90
2021/06/01 07:13:30;;;;;;;8.88;3.03;;;15.40;43.40;;;;;;5043519;28;20230;-90
2021/06/01 07:15:56;;;;;;;5.82;2.92;;;15.60;42.80;;;;;;5052743;28;20203;-88
2021/06/01 07:18:23;;;;;;;4.00;3.30;;;15.90;41.70;;;;;;5048064;28;20218;-89
2021/06/01 07:20:49;;;;;;;3.35;2.90;;;16.50;39.00;;;;;;5045341;28;20233;-89
2021/06/01 07:23:16;;;;;;;3.35;3.05;;;16.90;37.00;;;;;;5053961;28;20202;-89
2021/06/01 07:25:42;;;;;;;6.57;2.72;;;16.80;35.50;;;;;;5039472;28;20203;-88
2021/06/01 07:28:10;;;;;;;5.03;3.00;;;16.50;37.10;;;;;;5056474;28;20197;-90
2021/06/01 07:30:36;;;;;;;3.80;2.70;;;16.30;39.00;;;;;;5047479;28;20195;-89
2021/06/01 07:33:02;;;;;;;4.78;3.03;;;16.10;37.70;;;;;;5050472;28;20557;-88
2021/06/01 07:35:29;;;;;;;3.67;2.78;;;16.30;36.90;;;;;;5047503;28;20612;-89
2021/06/01 07:37:55;;;;;;;4.90;3.25;;;16.30;36.70;;;;;;5054810;28;20653;-89
2021/06/01 07:40:22;;;;;;;6.65;2.72;;;16.20;36.10;;;;;;5043795;28;20285;-90
2021/06/01 07:42:49;;;;;;;4.25;3.10;;;16.20;37.60;;;;;;5055807;28;20210;-88
2021/06/01 07:45:17;;;;;;;3.45;2.75;;;16.00;36.20;;;;;;5038662;28;20333;-88
2021/06/01 07:47:43;;;;;;;4.45;3.00;;;15.90;37.20;;;;;;5056037;28;20653;-88
2021/06/01 07:50:11;;;;;;;4.40;2.65;;;16.00;37.40;;;;;;5045687;28;20237;-90
2021/06/01 07:52:38;;;;;;;3.67;2.80;;;16.30;36.40;;;;;;5052735;28;20206;-91
2021/06/01 07:55:05;;;;;;;3.53;2.60;;;16.20;34.90;;;;;;5048251;28;20867;-90
2021/06/01 07:57:31;;;;;;;3.97;2.53;;;16.40;34.40;;;;;;5051122;28;20206;-90
2021/06/01 07:59:58;;;;;;;7.30;2.97;;;16.40;34.70;;;;;;5051464;28;20252;-88
2021/06/01 08:02:25;;;;;;;4.15;2.67;;;16.40;34.00;;;;;;5040883;28;20372;-88
2021/06/01 08:04:52;;;;;;;5.30;2.83;;;16.60;34.40;;;;;;5037529;28;20229;-88
2021/06/01 08:07:20;;;;;;;3.28;2.97;;;16.80;34.40;;;;;;5043135;28;20205;-89
2021/06/01 08:09:46;;;;;;;5.00;2.53;;;16.80;34.20;;;;;;5038078;28;20241;-88
2021/06/01 08:12:13;;;;;;;3.50;3.03;;;17.00;32.40;;;;;;5038586;28;20280;-89
2021/06/01 08:14:39;;;;;;;5.93;2.70;;;16.80;33.00;;;;;;5046029;28;20571;-89
2021/06/01 08:17:06;;;;;;;2.85;2.60;;;17.20;32.90;;;;;;5043738;28;20195;-89
2021/06/01 08:19:36;;;;;;;5.07;2.97;;;17.80;32.30;;;;;;5063333;28;20306;-89
2021/06/01 08:22:10;;;;;;;4.00;3.00;;;18.30;30.60;;;;;;5055372;28;20206;-87
2021/06/01 08:24:36;;;;;;;6.32;2.72;;;20.10;27.30;;;;;;5050705;28;20233;-89
2021/06/01 08:27:03;;;;;;;3.63;2.72;;;22.90;22.70;;;;;;5047869;28;20232;-84
2021/06/01 08:29:30;;;;;;;2.72;2.53;;;25.00;19.00;;;;;;5044705;28;20591;-86
2021/06/01 08:31:56;;;;;;;5.05;2.90;;;25.70;18.30;;;;;;5043458;28;20206;-85
2021/06/01 08:34:23;;;;;;;3.60;2.70;;;27.70;15.50;;;;;;5040455;28;20763;-85
2021/06/01 08:36:52;;;;;;;4.50;3.00;;;28.50;13.90;;;;;;5041178;28;20193;-86
2021/06/01 08:39:24;;;;;;;2.90;2.67;;;27.80;12.60;;;;;;5038214;28;20237;-85
2021/06/01 08:41:50;;;;;;;5.05;2.70;;;28.40;13.00;;;;;;5037373;28;20236;-87
2021/06/01 08:44:17;;;;;;;2.90;2.70;;;28.90;12.50;;;;;;5037765;28;20224;-86
2021/06/01 08:46:46;;;;;;;3.47;2.80;;;28.90;13.10;;;;;;5038200;28;20293;-85
2021/06/01 08:49:14;;;;;;;3.13;2.90;;;30.50;11.90;;;;;;5047773;28;20224;-86
2021/06/01 08:51:41;;;;;;;3.97;3.10;;;31.40;10.40;;;;;;5046344;28;20194;-87
2021/06/01 08:54:09;;;;;;;5.82;3.05;;;29.60;9.70;;;;;;5048468;28;20236;-86
2021/06/01 08:56:35;;;;;;;5.13;3.03;;;30.00;10.80;;;;;;5053775;28;20284;-88
2021/06/01 08:59:02;;;;;;;3.47;3.17;;;31.70;9.60;;;;;;5048073;28;20237;-87
2021/06/01 09:01:28;;;;;;;3.10;2.90;;;30.60;9.00;;;;;;5049733;28;20202;-87
2021/06/01 09:03:57;;;;;;;3.17;2.88;;;31.20;8.40;;;;;;5047994;28;20222;-87
2021/06/01 09:06:28;;;;;;;2.90;2.70;;;31.30;7.90;;;;;;5052481;28;20236;-86
2021/06/01 09:09:15;;;;;;;3.20;2.95;;;29.80;10.40;;;;;;5049962;28;20232;-86
2021/06/01 09:11:53;;;;;;;3.35;2.97;;;30.20;9.80;;;;;;5054323;28;20277;-87
2021/06/01 09:14:39;;;;;;;6.28;2.90;;;29.70;10.00;;;;;;5052669;28;20225;-87
2021/06/01 09:22:49;;;;;;;4.25;3.33;;;30.40;10.40;;;;;;5049210;28;20209;-86
2021/06/01 09:25:20;;;;;;;4.50;3.13;;;31.10;9.10;;;;;;5052529;28;20249;-87
2021/06/01 09:27:50;;;;;;;3.53;3.22;;;30.30;9.70;;;;;;5058045;28;20278;-87
2021/06/01 09:30:37;;;;;;;5.40;3.38;;;30.20;9.20;;;;;;5050800;28;20313;-87
2021/06/01 09:33:06;;;;;;;3.88;3.20;;;29.40;10.10;;;;;;5028815;28;20209;-86
2021/06/01 09:35:44;;;;;;;3.97;3.17;;;30.30;10.00;;;;;;5045375;28;20218;-86
2021/06/01 09:38:12;;;;;;;4.32;3.30;;;30.70;9.70;;;;;;5038815;28;20635;-86
2021/06/01 09:40:39;;;;;;;4.88;3.75;;;30.80;11.40;;;;;;5049106;28;20284;-87
2021/06/01 09:43:10;;;;;;;4.50;3.45;;;30.50;11.10;;;;;;5049361;28;20189;-89
2021/06/01 09:45:37;;;;;;;4.80;3.40;;;31.10;11.50;;;;;;5050992;28;20266;-90
2021/06/01 09:48:07;;;;;;;4.55;3.40;;;29.40;11.50;;;;;;5053084;28;20193;-88
2021/06/01 09:50:37;;;;;;;4.80;3.50;;;30.60;10.40;;;;;;5050821;28;20232;-88
2021/06/01 09:53:07;;;;;;;4.03;3.47;;;30.80;9.70;;;;;;5040190;28;20186;-89
2021/06/01 09:55:39;;;;;;;3.75;3.22;;;29.90;9.80;;;;;;5047356;28;20245;-86
2021/06/01 09:58:08;;;;;;;6.50;3.47;;;29.20;11.90;;;;;;5041742;28;20220;-86
2021/06/01 10:00:37;;;;;;;3.75;3.28;;;30.20;10.10;;;;;;5045977;28;20616;-90
2021/06/01 10:03:05;;;;;;;3.40;3.20;;;30.50;10.10;;;;;;5041574;28;20253;-86
2021/06/01 10:05:33;;;;;;;5.57;3.30;;;30.30;11.10;;;;;;5052212;28;20284;-87
2021/06/01 10:08:09;;;;;;;4.70;3.33;;;30.70;11.30;;;;;;5050615;28;20197;-89
2021/06/01 10:10:36;;;;;;;3.38;3.05;;;31.20;11.20;;;;;;5044412;28;20669;-88
2021/06/01 10:13:05;;;;;;;4.50;3.78;;;28.80;11.30;;;;;;5047002;28;20240;-86
2021/06/01 10:15:34;;;;;;;5.88;3.40;;;30.20;10.80;;;;;;5050471;28;20225;-85
2021/06/01 10:18:01;;;;;;;3.85;3.20;;;31.00;8.60;;;;;;5058893;28;20197;-90
2021/06/01 10:20:31;;;;;;;5.00;3.30;;;30.20;9.20;;;;;;5044169;28;20218;-87
2021/06/01 10:22:58;;;;;;;3.40;3.10;;;29.90;12.30;;;;;;5048899;28;20194;-86
2021/06/01 10:25:27;;;;;;;4.05;3.00;;;30.80;9.50;;;;;;5038675;28;20289;-86
2021/06/01 10:27:58;;;;;;;3.22;3.00;;;30.50;10.30;;;;;;5062933;28;20193;-86
2021/06/01 10:30:26;;;;;;;3.97;3.00;;;30.40;11.70;;;;;;5050095;28;20263;-87
2021/06/01 10:32:58;;;;;;;3.60;3.30;;;30.10;11.60;;;;;;5034131;28;20244;-86
2021/06/01 10:35:30;;;;;;;3.65;3.20;;;29.40;11.00;;;;;;5037728;28;20226;-88
2021/06/01 10:52:32;;;;;;;3.15;2.85;;;29.10;15.50;;;;;;5035961;28;20241;-86
2021/06/01 10:55:10;;;;;;;4.80;2.90;;;28.60;12.60;;;;;;5048485;28;20237;-86
2021/06/01 10:57:59;;;;;;;2.97;2.78;;;29.30;12.10;;;;;;5045003;28;20232;-87
2021/06/01 11:03:15;;;;;;;5.18;3.13;;;28.60;14.00;;;;;;5030632;28;20727;-86
2021/06/01 11:06:10;;;;;;;5.68;3.00;;;25.50;15.70;;;;;;5052578;28;20201;-87
2021/06/01 11:08:43;;;;;;;3.40;3.00;;;24.20;19.70;;;;;;5023203;28;20633;-84
2021/06/01 11:11:33;;;;;;;4.13;3.00;;;24.40;18.00;;;;;;5043236;28;20209;-86
2021/06/01 11:14:23;;;;;;;4.88;2.95;;;24.30;18.10;;;;;;5039802;28;20677;-86
2021/06/01 11:16:53;;;;;;;4.25;2.97;;;23.90;18.80;;;;;;5046340;28;20214;-88
2021/06/01 11:19:22;;;;;;;4.90;2.60;;;23.80;22.90;;;;;;5050932;28;20248;-88
2021/06/01 11:22:02;;;;;;;3.25;2.75;;;23.00;22.80;;;;;;5045834;28;20209;-87
2021/06/01 11:33:03;;;;;;;3.60;2.55;;;23.00;21.00;;;;;;5052119;28;20514;-87
2021/06/01 11:35:32;;;;;;;5.75;2.95;;;22.50;20.40;;;;;;5040170;28;20214;-87
2021/06/01 11:38:06;;;;;;;3.10;2.80;;;22.50;21.30;;;;;;5046227;28;20202;-88
2021/06/01 11:40:38;;;;;;;7.38;2.33;;;22.60;20.00;;;;;;5061300;28;20248;-87
2021/06/01 11:43:09;;;;;;;4.40;2.50;;;22.70;20.50;;;;;;5053733;28;20226;-86
2021/06/01 11:45:42;;;;;;;5.75;2.60;;;22.70;22.00;;;;;;5048117;28;20213;-88
2021/06/01 11:48:11;;;;;;;4.32;2.60;;;22.70;21.40;;;;;;5042730;28;20205;-88
2021/06/01 11:53:22;;;;;;;3.67;2.78;;;22.60;21.20;;;;;;5047930;28;20371;-88
2021/06/01 11:55:50;;;;;;;3.92;2.58;;;22.10;20.70;;;;;;5048490;28;20622;-87
2021/06/01 12:03:57;;;;;;;3.08;2.40;;;22.50;22.30;;;;;;5059445;28;20237;-89
2021/06/01 12:12:03;;;;;;;3.05;2.35;;;22.30;20.10;;;;;;5061443;28;20202;-87
2021/06/01 12:17:17;;;;;;;3.55;2.60;;;22.30;21.90;;;;;;5054890;28;20563;-87
2021/06/01 12:19:44;;;;;;;2.22;2.10;;;22.20;21.30;;;;;;5056930;28;20270;-88
2021/06/01 12:22:11;;;;;;;2.97;2.33;;;22.20;22.10;;;;;;5068239;28;20194;-88
2021/06/01 12:24:40;;;;;;;4.93;2.38;;;22.40;21.80;;;;;;5058043;28;20219;-87
2021/06/01 12:27:18;;;;;;;3.10;2.33;;;22.60;20.20;;;;;;5045815;28;20194;-86
2021/06/01 12:32:31;;;;;;;5.28;2.50;;;22.60;20.00;;;;;;5063810;28;20205;-86
2021/06/01 12:35:15;;;;;;;3.63;2.50;;;22.50;20.80;;;;;;5050280;28;20237;-88
2021/06/01 12:43:30;;;;;;;2.72;2.30;;;22.50;20.00;;;;;;5044579;28;20196;-87
2021/06/01 12:46:28;;;;;;;3.03;2.08;;;22.30;19.10;;;;;;5068988;28;20186;-87
2021/06/01 13:06:56;;;;;;;2.45;2.10;;;22.50;19.50;;;;;;5057319;28;20216;-87
2021/06/01 13:12:19;;;;;;;7.47;2.35;;;22.20;19.40;;;;;;5048542;28;20650;-88
2021/06/01 13:20:29;;;;;;;1.80;1.70;;;22.20;18.20;;;;;;5058067;28;20228;-88
2021/06/01 13:23:30;;;;;;;4.13;2.20;;;21.90;19.00;;;;;;5056640;28;20217;-88
2021/06/01 13:32:06;;;;;;;2.88;2.03;;;22.30;18.90;;;;;;5062093;28;20208;-87
2021/06/01 13:40:18;;;;;;;6.35;2.28;;;22.30;19.30;;;;;;5045921;28;20214;-89
2021/06/01 13:48:41;;;;;;;2.78;2.45;;;22.10;19.20;;;;;;5046772;28;20210;-88
2021/06/01 13:51:24;;;;;;;4.57;2.00;;;22.10;20.00;;;;;;5049714;28;20194;-87
2021/06/01 13:56:37;;;;;;;4.75;2.00;;;22.00;20.00;;;;;;5051462;28;20221;-89
2021/06/01 13:59:08;;;;;;;2.50;2.30;;;22.10;18.80;;;;;;5051627;28;20289;-87
2021/06/01 14:01:53;;;;;;;3.60;2.00;;;22.10;19.30;;;;;;5048350;28;20237;-86
2021/06/01 14:10:01;;;;;;;8.00;2.08;;;22.10;18.90;;;;;;5052147;28;20731;-87
2021/06/01 14:15:30;;;;;;;6.90;2.20;;;22.10;19.20;;;;;;5052787;28;20249;-89
2021/06/01 14:21:04;;;;;;;3.55;1.90;;;21.50;18.80;;;;;;5030343;28;20221;-88
2021/06/01 14:32:08;;;;;;;2.40;2.08;;;21.80;18.40;;;;;;5045287;28;20194;-88
2021/06/01 14:37:34;;;;;;;2.47;1.80;;;21.80;18.60;;;;;;5055995;28;20262;-88
2021/06/01 14:54:38;;;;;;;3.80;1.88;;;21.70;19.00;;;;;;5046500;28;20227;-87
2021/06/01 14:55:12;;;;;;;5.57;2.22;;;22.10;17.90;;;;;;5047126;28;20241;-88
2021/06/01 15:28:51;;;;;;;4.50;2.13;;;21.60;19.60;;;;;;5053503;28;20232;-88
2021/06/01 15:47:56;;;;;;;4.78;1.90;;;21.40;19.10;;;;;;5066951;28;20205;-87
2021/06/01 15:50:30;;;;;;;3.45;1.70;;;21.40;19.40;;;;;;5055264;28;20685;-88
2021/06/01 15:53:33;;;;;;;4.30;2.33;;;21.30;21.20;;;;;;5050780;28;20195;-87
2021/06/01 16:13:15;;;;;;;4.75;1.80;;;20.90;22.70;;;;;;5028947;28;20263;-89
2021/06/01 16:21:34;;;;;;;3.65;1.92;;;20.90;21.00;;;;;;5035931;28;20262;-86
2021/06/01 16:29:56;;;;;;;3.05;1.80;;;20.60;22.20;;;;;;5036545;28;20756;-89
2021/06/01 16:44:08;;;;;;;2.45;1.83;;;20.50;19.90;;;;;;5018064;28;20273;-88
2021/06/01 17:03:40;;;;;;;4.07;2.05;;;20.20;20.40;;;;;;5027981;28;20202;-87
2021/06/01 17:06:14;;;;;;;4.07;1.90;;;20.10;20.90;;;;;;5028973;28;20222;-87
2021/06/01 17:12:05;;;;;;;5.95;1.95;;;19.90;21.90;;;;;;5027678;28;20178;-87
2021/06/01 17:14:32;;;;;;;3.03;1.70;;;19.90;22.20;;;;;;5027050;28;20258;-87
2021/06/01 17:17:04;;;;;;;1.65;1.55;;;19.90;21.90;;;;;;5027435;28;20283;-88
2021/06/01 17:22:26;;;;;;;3.80;1.80;;;19.80;21.90;;;;;;4967361;29;20193;-87
2021/06/01 17:36:15;;;;;;;2.60;1.80;;;19.60;22.80;;;;;;5029105;28;20214;-88
2021/06/01 17:38:43;;;;;;;3.40;1.67;;;19.50;22.20;;;;;;5027445;28;20245;-87
2021/06/01 17:41:14;;;;;;;3.67;1.90;;;19.40;23.10;;;;;;5033818;28;20194;-88
2021/06/01 17:43:43;;;;;;;3.00;1.90;;;19.30;24.10;;;;;;5027155;28;20227;-88
2021/06/01 17:46:13;;;;;;;3.92;1.85;;;19.20;24.10;;;;;;5024844;28;20710;-88
2021/06/01 17:48:51;;;;;;;3.80;1.90;;;19.10;24.40;;;;;;5024299;28;20313;-88
2021/06/01 17:51:18;;;;;;;3.35;1.88;;;19.10;23.90;;;;;;5027848;28;20211;-89
2021/06/01 17:53:47;;;;;;;3.90;1.80;;;19.10;24.70;;;;;;5025873;28;20233;-90
2021/06/01 17:56:19;;;;;;;3.05;2.20;;;19.10;23.70;;;;;;5036756;28;20227;-88
2021/06/01 17:58:46;;;;;;;3.35;1.90;;;19.00;24.00;;;;;;5024711;28;20227;-88
2021/06/01 18:01:16;;;;;;;3.55;2.08;;;18.90;23.50;;;;;;5026756;28;20254;-88
2021/06/01 18:03:48;;;;;;;2.65;2.00;;;18.90;23.70;;;;;;5024964;28;20253;-87
2021/06/01 18:06:15;;;;;;;2.75;2.20;;;18.90;23.80;;;;;;5026118;28;20263;-88
2021/06/01 18:08:48;;;;;;;2.05;1.95;;;18.80;24.60;;;;;;5026156;28;20281;-88
2021/06/01 18:36:52;;;;;;;2.15;1.92;;;18.20;25.60;;;;;;5022099;28;20625;-87
2021/06/01 19:26:50;;;;;;;3.17;2.72;;;16.40;30.90;;;;;;5025326;28;20572;-89